sensor_id;sensor_type;location;lat;lon;timestamp;pressure;altitude;pressure_sealevel;temperature;humidity
16331;BME280;8275;48.206;16.340;2023-12-20T00:01:31;99097.09;;;7.04;46.66
16331;BME280;8275;48.206;16.340;2023-12-20T00:03:59;99097.56;;;7.01;46.38
16331;BME280;8275;48.206;16.340;2023-12-20T00:06:28;99093.66;;;6.97;46.56
16331;BME280;8275;48.206;16.340;2023-12-20T00:08:56;99102.53;;;6.92;46.71
16331;BME280;8275;48.206;16.340;2023-12-20T00:11:24;99113.31;;;6.87;46.93
16331;BME280;8275;48.206;16.340;2023-12-20T00:13:53;99114.84;;;6.83;46.86
16331;BME280;8275;48.206;16.340;2023-12-20T00:16:23;99108.44;;;6.78;47.04
16331;BME280;8275;48.206;16.340;2023-12-20T00:18:51;99092.59;;;6.75;46.96
16331;BME280;8275;48.206;16.340;2023-12-20T00:21:19;99111.63;;;6.75;46.93
16331;BME280;8275;48.206;16.340;2023-12-20T00:23:48;99102.88;;;6.73;46.98
16331;BME280;8275;48.206;16.340;2023-12-20T00:26:16;99098.50;;;6.72;46.49
16331;BME280;8275;48.206;16.340;2023-12-20T00:28:45;99109.41;;;6.72;46.57
16331;BME280;8275;48.206;16.340;2023-12-20T00:31:13;99102.28;;;6.71;47.05
16331;BME280;8275;48.206;16.340;2023-12-20T00:33:43;99106.09;;;6.70;46.57
16331;BME280;8275;48.206;16.340;2023-12-20T00:36:13;99103.59;;;6.68;46.95
16331;BME280;8275;48.206;16.340;2023-12-20T00:38:43;99101.94;;;6.67;46.70
16331;BME280;8275;48.206;16.340;2023-12-20T00:41:11;99102.16;;;6.66;46.59
16331;BME280;8275;48.206;16.340;2023-12-20T00:43:39;99099.44;;;6.66;46.61
16331;BME280;8275;48.206;16.340;2023-12-20T00:46:08;99089.38;;;6.66;47.06
16331;BME280;8275;48.206;16.340;2023-12-20T00:48:36;99102.53;;;6.69;46.96
16331;BME280;8275;48.206;16.340;2023-12-20T00:51:06;99106.44;;;6.73;47.27
16331;BME280;8275;48.206;16.340;2023-12-20T00:53:35;99112.00;;;6.78;47.43
16331;BME280;8275;48.206;16.340;2023-12-20T00:56:03;99111.06;;;6.84;47.31
16331;BME280;8275;48.206;16.340;2023-12-20T00:58:32;99100.53;;;6.88;46.99
16331;BME280;8275;48.206;16.340;2023-12-20T01:01:00;99115.09;;;6.93;47.64
16331;BME280;8275;48.206;16.340;2023-12-20T01:03:30;99104.91;;;7.00;47.34
16331;BME280;8275;48.206;16.340;2023-12-20T01:05:58;99105.84;;;7.06;47.47
16331;BME280;8275;48.206;16.340;2023-12-20T01:08:28;99100.28;;;7.13;47.09
16331;BME280;8275;48.206;16.340;2023-12-20T01:10:56;99097.69;;;7.18;47.29
16331;BME280;8275;48.206;16.340;2023-12-20T01:13:25;99102.41;;;7.22;47.21
16331;BME280;8275;48.206;16.340;2023-12-20T01:15:53;99101.94;;;7.25;47.05
16331;BME280;8275;48.206;16.340;2023-12-20T01:18:22;99092.44;;;7.28;47.43
16331;BME280;8275;48.206;16.340;2023-12-20T01:20:51;99086.75;;;7.29;47.35
16331;BME280;8275;48.206;16.340;2023-12-20T01:23:19;99083.53;;;7.32;47.09
16331;BME280;8275;48.206;16.340;2023-12-20T01:25:49;99082.47;;;7.33;47.11
16331;BME280;8275;48.206;16.340;2023-12-20T01:28:17;99086.88;;;7.34;47.31
16331;BME280;8275;48.206;16.340;2023-12-20T01:30:45;99076.56;;;7.36;47.40
16331;BME280;8275;48.206;16.340;2023-12-20T01:33:14;99076.91;;;7.40;47.35
16331;BME280;8275;48.206;16.340;2023-12-20T01:35:42;99069.56;;;7.40;47.10
16331;BME280;8275;48.206;16.340;2023-12-20T01:38:11;99060.66;;;7.45;47.19
16331;BME280;8275;48.206;16.340;2023-12-20T01:40:39;99065.06;;;7.46;47.22
16331;BME280;8275;48.206;16.340;2023-12-20T01:43:09;99066.44;;;7.48;47.53
16331;BME280;8275;48.206;16.340;2023-12-20T01:45:39;99071.66;;;7.50;47.23
16331;BME280;8275;48.206;16.340;2023-12-20T01:48:09;99051.50;;;7.51;47.30
16331;BME280;8275;48.206;16.340;2023-12-20T01:50:38;99045.25;;;7.50;47.37
16331;BME280;8275;48.206;16.340;2023-12-20T01:53:09;99037.06;;;7.50;47.34
16331;BME280;8275;48.206;16.340;2023-12-20T01:55:40;99031.84;;;7.49;47.16
16331;BME280;8275;48.206;16.340;2023-12-20T01:58:10;99033.50;;;7.50;47.44
16331;BME280;8275;48.206;16.340;2023-12-20T02:00:39;99038.13;;;7.49;47.48
16331;BME280;8275;48.206;16.340;2023-12-20T02:03:08;99012.28;;;7.52;47.13
16331;BME280;8275;48.206;16.340;2023-12-20T02:05:38;99003.84;;;7.53;47.04
16331;BME280;8275;48.206;16.340;2023-12-20T02:08:07;98995.47;;;7.55;46.95
16331;BME280;8275;48.206;16.340;2023-12-20T02:10:35;98998.19;;;7.55;47.27
16331;BME280;8275;48.206;16.340;2023-12-20T02:13:04;98990.00;;;7.55;46.92
16331;BME280;8275;48.206;16.340;2023-12-20T02:15:34;98985.88;;;7.52;46.83
16331;BME280;8275;48.206;16.340;2023-12-20T02:18:04;98971.66;;;7.50;47.00
16331;BME280;8275;48.206;16.340;2023-12-20T02:20:33;98963.13;;;7.47;47.17
16331;BME280;8275;48.206;16.340;2023-12-20T02:23:03;98964.44;;;7.44;46.83
16331;BME280;8275;48.206;16.340;2023-12-20T02:25:31;98964.13;;;7.41;47.31
16331;BME280;8275;48.206;16.340;2023-12-20T02:28:00;98955.59;;;7.37;47.15
16331;BME280;8275;48.206;16.340;2023-12-20T02:30:29;98954.41;;;7.33;46.51
16331;BME280;8275;48.206;16.340;2023-12-20T02:32:59;98954.69;;;7.32;46.73
16331;BME280;8275;48.206;16.340;2023-12-20T02:35:27;98947.81;;;7.29;46.93
16331;BME280;8275;48.206;16.340;2023-12-20T02:37:56;98943.66;;;7.27;47.08
16331;BME280;8275;48.206;16.340;2023-12-20T02:40:25;98938.47;;;7.25;47.11
16331;BME280;8275;48.206;16.340;2023-12-20T02:42:54;98941.44;;;7.24;46.82
16331;BME280;8275;48.206;16.340;2023-12-20T02:45:22;98933.50;;;7.22;46.68
16331;BME280;8275;48.206;16.340;2023-12-20T02:47:51;98938.13;;;7.22;46.87
16331;BME280;8275;48.206;16.340;2023-12-20T02:50:19;98927.22;;;7.22;46.67
16331;BME280;8275;48.206;16.340;2023-12-20T02:52:47;98931.84;;;7.21;46.93
16331;BME280;8275;48.206;16.340;2023-12-20T02:55:16;98921.28;;;7.25;46.74
16331;BME280;8275;48.206;16.340;2023-12-20T02:57:46;98923.25;;;7.41;47.05
16331;BME280;8275;48.206;16.340;2023-12-20T03:00:15;98917.16;;;7.67;47.09
16331;BME280;8275;48.206;16.340;2023-12-20T03:02:43;98916.59;;;7.98;46.72
16331;BME280;8275;48.206;16.340;2023-12-20T03:05:12;98905.44;;;8.33;46.33
16331;BME280;8275;48.206;16.340;2023-12-20T03:07:40;98895.28;;;8.67;46.28
16331;BME280;8275;48.206;16.340;2023-12-20T03:10:09;98893.69;;;8.92;45.98
16331;BME280;8275;48.206;16.340;2023-12-20T03:12:51;98911.09;;;9.08;45.61
16331;BME280;8275;48.206;16.340;2023-12-20T03:15:19;98916.63;;;9.13;45.01
16331;BME280;8275;48.206;16.340;2023-12-20T03:17:47;98919.34;;;9.13;44.83
16331;BME280;8275;48.206;16.340;2023-12-20T03:20:17;98916.88;;;9.11;44.71
16331;BME280;8275;48.206;16.340;2023-12-20T03:22:45;98911.34;;;9.06;44.72
16331;BME280;8275;48.206;16.340;2023-12-20T03:25:14;98914.28;;;9.00;44.66
16331;BME280;8275;48.206;16.340;2023-12-20T03:27:42;98916.59;;;8.91;44.50
16331;BME280;8275;48.206;16.340;2023-12-20T03:30:13;98928.81;;;8.84;44.24
16331;BME280;8275;48.206;16.340;2023-12-20T03:32:41;98915.59;;;8.76;44.52
16331;BME280;8275;48.206;16.340;2023-12-20T03:35:10;98920.41;;;8.69;44.36
16331;BME280;8275;48.206;16.340;2023-12-20T03:37:38;98915.13;;;8.62;44.34
16331;BME280;8275;48.206;16.340;2023-12-20T03:40:08;98916.97;;;8.57;44.29
16331;BME280;8275;48.206;16.340;2023-12-20T03:42:36;98916.91;;;8.52;44.44
16331;BME280;8275;48.206;16.340;2023-12-20T03:45:06;98911.38;;;8.46;44.36
16331;BME280;8275;48.206;16.340;2023-12-20T03:47:36;98909.97;;;8.44;44.29
16331;BME280;8275;48.206;16.340;2023-12-20T03:50:06;98917.03;;;8.40;44.23
16331;BME280;8275;48.206;16.340;2023-12-20T03:52:35;98923.81;;;8.37;44.10
16331;BME280;8275;48.206;16.340;2023-12-20T03:55:04;98918.00;;;8.34;44.22
16331;BME280;8275;48.206;16.340;2023-12-20T03:57:33;98916.38;;;8.33;44.33
16331;BME280;8275;48.206;16.340;2023-12-20T04:00:01;98914.69;;;8.32;44.35
16331;BME280;8275;48.206;16.340;2023-12-20T04:02:30;98918.00;;;8.34;44.30
16331;BME280;8275;48.206;16.340;2023-12-20T04:04:59;98916.09;;;8.34;44.28
16331;BME280;8275;48.206;16.340;2023-12-20T04:07:28;98909.91;;;8.39;44.12
16331;BME280;8275;48.206;16.340;2023-12-20T04:09:57;98914.88;;;8.42;44.39
16331;BME280;8275;48.206;16.340;2023-12-20T04:12:27;98905.91;;;8.46;44.20
16331;BME280;8275;48.206;16.340;2023-12-20T04:14:55;98907.06;;;8.51;44.38
16331;BME280;8275;48.206;16.340;2023-12-20T04:17:24;98906.88;;;8.57;44.30
16331;BME280;8275;48.206;16.340;2023-12-20T04:19:52;98909.69;;;8.62;44.19
16331;BME280;8275;48.206;16.340;2023-12-20T04:22:22;98910.59;;;8.68;44.06
16331;BME280;8275;48.206;16.340;2023-12-20T04:24:51;98909.00;;;8.72;44.04
16331;BME280;8275;48.206;16.340;2023-12-20T04:27:19;98901.94;;;8.76;43.95
16331;BME280;8275;48.206;16.340;2023-12-20T04:29:48;98893.56;;;8.82;43.95
16331;BME280;8275;48.206;16.340;2023-12-20T04:32:16;98902.72;;;8.93;43.98
16331;BME280;8275;48.206;16.340;2023-12-20T04:34:44;98902.31;;;9.06;43.63
16331;BME280;8275;48.206;16.340;2023-12-20T04:37:13;98903.25;;;9.16;43.42
16331;BME280;8275;48.206;16.340;2023-12-20T04:39:43;98914.25;;;9.22;43.64
16331;BME280;8275;48.206;16.340;2023-12-20T04:42:11;98909.09;;;9.25;43.73
16331;BME280;8275;48.206;16.340;2023-12-20T04:44:39;98912.63;;;9.26;43.60
16331;BME280;8275;48.206;16.340;2023-12-20T04:47:08;98905.53;;;9.25;43.76
16331;BME280;8275;48.206;16.340;2023-12-20T04:49:36;98908.28;;;9.25;43.79
16331;BME280;8275;48.206;16.340;2023-12-20T04:52:05;98904.44;;;9.26;43.63
16331;BME280;8275;48.206;16.340;2023-12-20T04:54:34;98903.09;;;9.28;43.83
16331;BME280;8275;48.206;16.340;2023-12-20T04:57:04;98900.13;;;9.30;43.67
16331;BME280;8275;48.206;16.340;2023-12-20T04:59:32;98905.06;;;9.33;43.80
16331;BME280;8275;48.206;16.340;2023-12-20T05:02:01;98899.72;;;9.43;43.97
16331;BME280;8275;48.206;16.340;2023-12-20T05:04:29;98908.59;;;9.55;44.03
16331;BME280;8275;48.206;16.340;2023-12-20T05:06:58;98899.44;;;9.71;44.04
16331;BME280;8275;48.206;16.340;2023-12-20T05:09:26;98884.56;;;9.88;44.08
16331;BME280;8275;48.206;16.340;2023-12-20T05:11:54;98891.28;;;10.08;43.93
16331;BME280;8275;48.206;16.340;2023-12-20T05:14:25;98881.84;;;10.25;44.28
16331;BME280;8275;48.206;16.340;2023-12-20T05:16:54;98887.44;;;10.45;44.07
16331;BME280;8275;48.206;16.340;2023-12-20T05:19:23;98884.53;;;10.62;44.14
16331;BME280;8275;48.206;16.340;2023-12-20T05:21:52;98890.66;;;10.79;43.89
16331;BME280;8275;48.206;16.340;2023-12-20T05:24:20;98888.81;;;10.95;44.29
16331;BME280;8275;48.206;16.340;2023-12-20T05:26:49;98899.25;;;11.08;44.32
16331;BME280;8275;48.206;16.340;2023-12-20T05:29:20;98900.69;;;11.20;43.80
16331;BME280;8275;48.206;16.340;2023-12-20T05:31:50;98894.97;;;11.32;44.19
16331;BME280;8275;48.206;16.340;2023-12-20T05:34:18;98878.28;;;11.44;43.78
16331;BME280;8275;48.206;16.340;2023-12-20T05:36:47;98884.59;;;11.54;43.95
16331;BME280;8275;48.206;16.340;2023-12-20T05:39:16;98883.22;;;11.62;43.84
16331;BME280;8275;48.206;16.340;2023-12-20T05:41:44;98881.34;;;11.72;43.88
16331;BME280;8275;48.206;16.340;2023-12-20T05:44:12;98890.13;;;11.79;44.08
16331;BME280;8275;48.206;16.340;2023-12-20T05:46:41;98890.69;;;11.86;43.98
16331;BME280;8275;48.206;16.340;2023-12-20T05:49:11;98899.19;;;11.95;43.75
16331;BME280;8275;48.206;16.340;2023-12-20T05:51:40;98886.03;;;12.02;43.67
16331;BME280;8275;48.206;16.340;2023-12-20T05:54:09;98890.16;;;12.10;43.79
16331;BME280;8275;48.206;16.340;2023-12-20T05:56:38;98889.84;;;12.16;43.87
16331;BME280;8275;48.206;16.340;2023-12-20T05:59:06;98902.22;;;12.24;43.88
16331;BME280;8275;48.206;16.340;2023-12-20T06:01:35;98901.66;;;12.32;43.61
16331;BME280;8275;48.206;16.340;2023-12-20T06:04:03;98902.75;;;12.36;43.58
16331;BME280;8275;48.206;16.340;2023-12-20T06:06:33;98911.81;;;12.41;43.59
16331;BME280;8275;48.206;16.340;2023-12-20T06:09:02;98909.88;;;12.47;43.60
16331;BME280;8275;48.206;16.340;2023-12-20T06:11:31;98899.97;;;12.51;43.52
16331;BME280;8275;48.206;16.340;2023-12-20T06:13:59;98895.31;;;12.56;43.50
16331;BME280;8275;48.206;16.340;2023-12-20T06:16:27;98900.81;;;12.61;43.42
16331;BME280;8275;48.206;16.340;2023-12-20T06:18:56;98903.25;;;12.68;43.21
16331;BME280;8275;48.206;16.340;2023-12-20T06:21:24;98898.53;;;12.74;43.13
16331;BME280;8275;48.206;16.340;2023-12-20T06:23:54;98900.19;;;12.80;42.97
16331;BME280;8275;48.206;16.340;2023-12-20T06:26:23;98904.31;;;12.82;42.94
16331;BME280;8275;48.206;16.340;2023-12-20T06:28:51;98914.47;;;12.87;43.01
16331;BME280;8275;48.206;16.340;2023-12-20T06:31:19;98912.81;;;12.91;42.72
16331;BME280;8275;48.206;16.340;2023-12-20T06:33:48;98912.25;;;12.94;42.58
16331;BME280;8275;48.206;16.340;2023-12-20T06:36:24;98922.66;;;12.97;42.64
16331;BME280;8275;48.206;16.340;2023-12-20T06:38:54;98920.47;;;12.99;42.41
16331;BME280;8275;48.206;16.340;2023-12-20T06:41:22;98929.25;;;13.01;42.37
16331;BME280;8275;48.206;16.340;2023-12-20T06:43:51;98938.31;;;13.01;42.30
16331;BME280;8275;48.206;16.340;2023-12-20T06:46:20;98945.19;;;13.04;42.49
16331;BME280;8275;48.206;16.340;2023-12-20T06:48:47;98948.25;;;13.07;42.37
16331;BME280;8275;48.206;16.340;2023-12-20T06:51:16;98935.03;;;13.09;42.33
16331;BME280;8275;48.206;16.340;2023-12-20T06:53:46;98927.34;;;13.11;42.32
16331;BME280;8275;48.206;16.340;2023-12-20T06:56:16;98917.41;;;13.15;42.26
16331;BME280;8275;48.206;16.340;2023-12-20T06:58:46;98897.59;;;13.18;41.99
16331;BME280;8275;48.206;16.340;2023-12-20T07:01:15;98895.63;;;13.24;42.33
16331;BME280;8275;48.206;16.340;2023-12-20T07:03:44;98888.19;;;13.29;42.23
16331;BME280;8275;48.206;16.340;2023-12-20T07:06:13;98878.00;;;13.35;42.05
16331;BME280;8275;48.206;16.340;2023-12-20T07:08:44;98880.16;;;13.38;41.94
16331;BME280;8275;48.206;16.340;2023-12-20T07:11:12;98879.84;;;13.45;41.91
16331;BME280;8275;48.206;16.340;2023-12-20T07:13:42;98891.13;;;13.48;41.72
16331;BME280;8275;48.206;16.340;2023-12-20T07:16:10;98910.88;;;13.55;41.54
16331;BME280;8275;48.206;16.340;2023-12-20T07:18:39;98895.44;;;13.59;41.45
16331;BME280;8275;48.206;16.340;2023-12-20T07:21:07;98913.03;;;13.63;41.45
16331;BME280;8275;48.206;16.340;2023-12-20T07:23:36;98934.19;;;13.68;41.31
16331;BME280;8275;48.206;16.340;2023-12-20T07:26:04;98941.34;;;13.69;41.66
16331;BME280;8275;48.206;16.340;2023-12-20T07:28:32;98937.50;;;13.70;41.88
16331;BME280;8275;48.206;16.340;2023-12-20T07:31:03;98947.41;;;13.66;42.46
16331;BME280;8275;48.206;16.340;2023-12-20T07:33:32;98946.91;;;13.59;43.04
16331;BME280;8275;48.206;16.340;2023-12-20T07:36:06;98944.78;;;13.46;43.59
16331;BME280;8275;48.206;16.340;2023-12-20T07:38:35;98948.94;;;13.33;44.10
16331;BME280;8275;48.206;16.340;2023-12-20T07:41:04;98946.81;;;13.20;44.77
16331;BME280;8275;48.206;16.340;2023-12-20T07:43:32;98956.75;;;13.06;45.23
16331;BME280;8275;48.206;16.340;2023-12-20T07:46:06;98952.66;;;12.93;45.76
16331;BME280;8275;48.206;16.340;2023-12-20T07:48:35;98951.84;;;12.83;45.97
16331;BME280;8275;48.206;16.340;2023-12-20T07:51:04;98958.22;;;12.73;46.38
16331;BME280;8275;48.206;16.340;2023-12-20T07:53:34;98937.88;;;12.64;46.50
16331;BME280;8275;48.206;16.340;2023-12-20T07:56:13;98970.59;;;12.55;46.80
16331;BME280;8275;48.206;16.340;2023-12-20T07:58:42;98958.22;;;12.48;47.36
16331;BME280;8275;48.206;16.340;2023-12-20T08:01:20;98948.88;;;12.39;48.26
16331;BME280;8275;48.206;16.340;2023-12-20T08:03:50;98958.25;;;12.33;48.26
16331;BME280;8275;48.206;16.340;2023-12-20T08:06:19;98966.22;;;12.24;48.56
16331;BME280;8275;48.206;16.340;2023-12-20T08:08:47;98982.38;;;12.16;48.67
16331;BME280;8275;48.206;16.340;2023-12-20T08:11:30;98939.56;;;12.10;48.12
16331;BME280;8275;48.206;16.340;2023-12-20T08:13:58;98965.38;;;12.04;48.13
16331;BME280;8275;48.206;16.340;2023-12-20T08:16:28;98962.06;;;11.96;47.47
16331;BME280;8275;48.206;16.340;2023-12-20T08:18:57;98967.56;;;11.91;47.29
16331;BME280;8275;48.206;16.340;2023-12-20T08:21:25;98973.88;;;11.92;47.37
16331;BME280;8275;48.206;16.340;2023-12-20T08:23:54;98970.31;;;11.91;46.83
16331;BME280;8275;48.206;16.340;2023-12-20T08:26:23;98985.41;;;11.94;46.38
16331;BME280;8275;48.206;16.340;2023-12-20T08:28:51;98975.81;;;11.96;46.31
16331;BME280;8275;48.206;16.340;2023-12-20T08:31:20;98983.22;;;12.01;45.97
16331;BME280;8275;48.206;16.340;2023-12-20T08:33:50;98979.38;;;12.07;45.93
16331;BME280;8275;48.206;16.340;2023-12-20T08:36:21;98999.44;;;12.13;45.80
16331;BME280;8275;48.206;16.340;2023-12-20T08:38:50;98985.97;;;12.16;44.92
16331;BME280;8275;48.206;16.340;2023-12-20T08:41:19;98995.31;;;12.20;44.99
16331;BME280;8275;48.206;16.340;2023-12-20T08:43:48;99004.38;;;12.26;44.72
16331;BME280;8275;48.206;16.340;2023-12-20T08:46:16;99001.63;;;12.31;44.88
16331;BME280;8275;48.206;16.340;2023-12-20T08:48:45;99001.66;;;12.36;44.69
16331;BME280;8275;48.206;16.340;2023-12-20T08:51:15;99000.53;;;12.42;44.32
16331;BME280;8275;48.206;16.340;2023-12-20T08:53:44;99002.75;;;12.50;44.65
16331;BME280;8275;48.206;16.340;2023-12-20T08:56:14;99014.28;;;12.57;44.57
16331;BME280;8275;48.206;16.340;2023-12-20T08:58:45;99012.91;;;12.64;44.46
16331;BME280;8275;48.206;16.340;2023-12-20T09:01:14;99021.44;;;12.68;44.32
16331;BME280;8275;48.206;16.340;2023-12-20T09:03:43;99021.13;;;12.69;43.60
16331;BME280;8275;48.206;16.340;2023-12-20T09:06:11;99024.44;;;12.72;43.76
16331;BME280;8275;48.206;16.340;2023-12-20T09:08:41;99017.84;;;12.73;43.98
16331;BME280;8275;48.206;16.340;2023-12-20T09:11:10;99033.75;;;12.76;44.16
16331;BME280;8275;48.206;16.340;2023-12-20T09:13:39;99023.59;;;12.81;44.09
16331;BME280;8275;48.206;16.340;2023-12-20T09:16:08;99027.44;;;12.85;43.90
16331;BME280;8275;48.206;16.340;2023-12-20T09:18:37;99016.97;;;12.87;44.23
16331;BME280;8275;48.206;16.340;2023-12-20T09:21:05;99027.44;;;12.90;44.60
16331;BME280;8275;48.206;16.340;2023-12-20T09:23:33;99036.78;;;12.94;44.94
16331;BME280;8275;48.206;16.340;2023-12-20T09:26:05;99025.53;;;12.91;45.14
16331;BME280;8275;48.206;16.340;2023-12-20T09:28:33;99048.34;;;12.86;45.61
16331;BME280;8275;48.206;16.340;2023-12-20T09:31:04;99032.41;;;12.78;46.17
16331;BME280;8275;48.206;16.340;2023-12-20T09:33:34;99052.75;;;12.72;46.50
16331;BME280;8275;48.206;16.340;2023-12-20T09:36:03;99044.50;;;12.62;46.48
16331;BME280;8275;48.206;16.340;2023-12-20T09:38:31;99052.47;;;12.53;46.35
16331;BME280;8275;48.206;16.340;2023-12-20T09:41:00;99033.50;;;12.47;46.23
16331;BME280;8275;48.206;16.340;2023-12-20T09:43:37;99063.19;;;12.45;46.37
16331;BME280;8275;48.206;16.340;2023-12-20T09:46:06;99054.41;;;12.43;46.42
16331;BME280;8275;48.206;16.340;2023-12-20T09:48:36;99046.41;;;12.41;46.34
16331;BME280;8275;48.206;16.340;2023-12-20T09:51:05;99046.69;;;12.40;46.37
16331;BME280;8275;48.206;16.340;2023-12-20T09:53:37;99042.31;;;12.34;46.96
16331;BME280;8275;48.206;16.340;2023-12-20T09:56:07;99029.66;;;12.28;47.31
16331;BME280;8275;48.206;16.340;2023-12-20T09:58:38;99037.06;;;12.17;47.61
16331;BME280;8275;48.206;16.340;2023-12-20T10:01:08;99035.13;;;12.13;47.62
16331;BME280;8275;48.206;16.340;2023-12-20T10:03:39;99030.72;;;12.07;47.90
16331;BME280;8275;48.206;16.340;2023-12-20T10:06:09;99034.81;;;12.04;48.70
16331;BME280;8275;48.206;16.340;2023-12-20T10:08:39;99032.88;;;11.99;48.44
16331;BME280;8275;48.206;16.340;2023-12-20T10:11:07;99019.97;;;11.95;48.63
16331;BME280;8275;48.206;16.340;2023-12-20T10:13:39;99023.81;;;11.89;48.76
16331;BME280;8275;48.206;16.340;2023-12-20T10:16:09;99018.59;;;11.87;49.10
16331;BME280;8275;48.206;16.340;2023-12-20T10:18:37;99007.63;;;11.87;49.24
16331;BME280;8275;48.206;16.340;2023-12-20T10:21:06;99006.50;;;11.83;49.11
16331;BME280;8275;48.206;16.340;2023-12-20T10:23:37;98998.53;;;11.82;49.26
16331;BME280;8275;48.206;16.340;2023-12-20T10:26:08;99004.59;;;11.84;49.45
16331;BME280;8275;48.206;16.340;2023-12-20T10:28:38;98997.72;;;11.86;49.30
16331;BME280;8275;48.206;16.340;2023-12-20T10:31:07;98997.72;;;11.86;48.79
16331;BME280;8275;48.206;16.340;2023-12-20T10:33:35;98975.22;;;11.84;48.83
16331;BME280;8275;48.206;16.340;2023-12-20T10:36:06;98995.81;;;11.82;48.81
16331;BME280;8275;48.206;16.340;2023-12-20T10:38:36;99002.41;;;11.81;48.54
16331;BME280;8275;48.206;16.340;2023-12-20T10:41:07;98999.38;;;11.82;48.78
16331;BME280;8275;48.206;16.340;2023-12-20T10:43:39;98987.03;;;11.85;48.79
16331;BME280;8275;48.206;16.340;2023-12-20T10:46:08;98987.59;;;11.87;48.71
16331;BME280;8275;48.206;16.340;2023-12-20T10:48:38;98980.72;;;11.89;48.20
16331;BME280;8275;48.206;16.340;2023-12-20T10:51:08;98978.00;;;11.94;48.61
16331;BME280;8275;48.206;16.340;2023-12-20T10:53:39;98967.56;;;12.02;48.35
16331;BME280;8275;48.206;16.340;2023-12-20T10:56:12;98970.31;;;12.07;48.37
16331;BME280;8275;48.206;16.340;2023-12-20T10:58:46;98969.47;;;12.11;47.94
16331;BME280;8275;48.206;16.340;2023-12-20T11:01:16;98964.00;;;12.11;47.72
16331;BME280;8275;48.206;16.340;2023-12-20T11:03:49;98959.63;;;12.15;47.83
16331;BME280;8275;48.206;16.340;2023-12-20T11:06:29;98965.91;;;12.21;47.76
16331;BME280;8275;48.206;16.340;2023-12-20T11:09:10;98949.44;;;12.26;47.81
16331;BME280;8275;48.206;16.340;2023-12-20T11:11:57;98950.00;;;12.28;47.37
16331;BME280;8275;48.206;16.340;2023-12-20T11:14:35;98943.97;;;12.31;47.45
16331;BME280;8275;48.206;16.340;2023-12-20T11:17:08;98937.09;;;12.38;47.59
16331;BME280;8275;48.206;16.340;2023-12-20T11:20:08;98931.31;;;12.40;47.31
16331;BME280;8275;48.206;16.340;2023-12-20T11:22:51;98933.53;;;12.43;47.49
16331;BME280;8275;48.206;16.340;2023-12-20T11:25:20;98939.03;;;12.43;47.07
16331;BME280;8275;48.206;16.340;2023-12-20T11:28:07;98933.25;;;12.39;46.99
16331;BME280;8275;48.206;16.340;2023-12-20T11:30:47;98933.25;;;12.39;46.92
16331;BME280;8275;48.206;16.340;2023-12-20T11:33:16;98932.16;;;12.40;46.99
16331;BME280;8275;48.206;16.340;2023-12-20T11:35:47;98923.63;;;12.42;47.27
16331;BME280;8275;48.206;16.340;2023-12-20T11:38:15;98915.91;;;12.44;47.08
16331;BME280;8275;48.206;16.340;2023-12-20T11:40:44;98922.78;;;12.46;47.04
16331;BME280;8275;48.206;16.340;2023-12-20T11:43:12;98921.69;;;12.47;47.14
16331;BME280;8275;48.206;16.340;2023-12-20T11:46:03;98930.19;;;12.51;47.05
16331;BME280;8275;48.206;16.340;2023-12-20T11:48:34;98932.94;;;12.56;46.99
16331;BME280;8275;48.206;16.340;2023-12-20T11:51:09;98942.03;;;12.61;46.91
16331;BME280;8275;48.206;16.340;2023-12-20T11:53:37;98931.81;;;12.67;46.77
16331;BME280;8275;48.206;16.340;2023-12-20T11:56:06;98936.22;;;12.73;46.85
16331;BME280;8275;48.206;16.340;2023-12-20T11:58:35;98924.94;;;12.80;46.66
16331;BME280;8275;48.206;16.340;2023-12-20T12:01:06;98932.59;;;12.88;46.39
16331;BME280;8275;48.206;16.340;2023-12-20T12:03:36;98923.50;;;12.97;46.34
16331;BME280;8275;48.206;16.340;2023-12-20T12:06:05;98912.50;;;13.07;46.35
16331;BME280;8275;48.206;16.340;2023-12-20T12:08:36;98920.13;;;13.20;46.42
16331;BME280;8275;48.206;16.340;2023-12-20T12:11:05;98919.53;;;13.33;46.23
16331;BME280;8275;48.206;16.340;2023-12-20T12:13:33;98920.84;;;13.46;46.18
16331;BME280;8275;48.206;16.340;2023-12-20T12:16:03;98905.91;;;13.57;45.71
16331;BME280;8275;48.206;16.340;2023-12-20T12:18:34;98912.50;;;13.61;45.26
16331;BME280;8275;48.206;16.340;2023-12-20T12:21:03;98912.16;;;13.68;45.37
16331;BME280;8275;48.206;16.340;2023-12-20T12:23:41;98897.00;;;13.70;44.97
16331;BME280;8275;48.206;16.340;2023-12-20T12:26:10;98907.69;;;13.77;45.19
16331;BME280;8275;48.206;16.340;2023-12-20T12:28:40;98901.06;;;13.83;44.72
16331;BME280;8275;48.206;16.340;2023-12-20T12:31:13;98910.41;;;13.82;44.27
16331;BME280;8275;48.206;16.340;2023-12-20T12:33:43;98902.16;;;13.82;44.14
16331;BME280;8275;48.206;16.340;2023-12-20T12:36:12;98898.88;;;13.80;43.93
16331;BME280;8275;48.206;16.340;2023-12-20T12:38:43;98914.31;;;13.76;43.95
16331;BME280;8275;48.206;16.340;2023-12-20T12:41:13;98898.38;;;13.73;44.09
16331;BME280;8275;48.206;16.340;2023-12-20T12:43:42;98900.06;;;13.69;43.90
16331;BME280;8275;48.206;16.340;2023-12-20T12:46:10;98889.91;;;13.64;44.06
16331;BME280;8275;48.206;16.340;2023-12-20T12:48:39;98905.34;;;13.60;44.27
16331;BME280;8275;48.206;16.340;2023-12-20T12:51:13;98894.59;;;13.59;44.36
16331;BME280;8275;48.206;16.340;2023-12-20T12:53:41;98900.13;;;13.59;44.14
16331;BME280;8275;48.206;16.340;2023-12-20T12:56:10;98891.63;;;13.55;44.10
16331;BME280;8275;48.206;16.340;2023-12-20T12:58:40;98894.66;;;13.54;44.29
16331;BME280;8275;48.206;16.340;2023-12-20T13:01:09;98896.00;;;13.56;44.32
16331;BME280;8275;48.206;16.340;2023-12-20T13:03:37;98895.19;;;13.56;44.29
16331;BME280;8275;48.206;16.340;2023-12-20T13:06:06;98894.94;;;13.52;44.05
16331;BME280;8275;48.206;16.340;2023-12-20T13:08:37;98891.66;;;13.50;44.12
16331;BME280;8275;48.206;16.340;2023-12-20T13:11:06;98887.81;;;13.51;44.43
16331;BME280;8275;48.206;16.340;2023-12-20T13:13:34;98885.28;;;13.55;44.49
16331;BME280;8275;48.206;16.340;2023-12-20T13:16:04;98901.25;;;13.58;44.55
16331;BME280;8275;48.206;16.340;2023-12-20T13:18:33;98906.97;;;13.61;44.38